sensor_id;sensor_type;location;lat;lon;timestamp;temperature;humidity
22948;DHT22;11640;52.520;13.456;2023-04-24T00:01:43;12.10;99.90
22948;DHT22;11640;52.520;13.456;2023-04-24T00:06:45;12.00;99.90
22948;DHT22;11640;52.520;13.456;2023-04-24T00:11:51;12.00;99.90
22948;DHT22;11640;52.520;13.456;2023-04-24T00:16:52;12.00;99.90
22948;DHT22;11640;52.520;13.456;2023-04-24T00:21:54;11.90;99.90
22948;DHT22;11640;52.520;13.456;2023-04-24T00:26:57;11.80;99.90
22948;DHT22;11640;52.520;13.456;2023-04-24T00:31:59;11.90;99.90
22948;DHT22;11640;52.520;13.456;2023-04-24T00:37:01;11.80;99.90
22948;DHT22;11640;52.520;13.456;2023-04-24T00:42:03;11.90;99.90
22948;DHT22;11640;52.520;13.456;2023-04-24T00:47:07;11.80;99.90
22948;DHT22;11640;52.520;13.456;2023-04-24T00:52:09;11.80;99.90
22948;DHT22;11640;52.520;13.456;2023-04-24T00:57:13;11.80;99.90
22948;DHT22;11640;52.520;13.456;2023-04-24T01:02:16;11.80;99.90
22948;DHT22;11640;52.520;13.456;2023-04-24T01:07:22;11.80;99.90
22948;DHT22;11640;52.520;13.456;2023-04-24T01:12:25;11.80;99.90
22948;DHT22;11640;52.520;13.456;2023-04-24T01:17:27;11.70;99.90
22948;DHT22;11640;52.520;13.456;2023-04-24T01:22:29;11.80;99.90
22948;DHT22;11640;52.520;13.456;2023-04-24T01:27:31;11.80;99.90
22948;DHT22;11640;52.520;13.456;2023-04-24T01:32:33;11.70;99.90
22948;DHT22;11640;52.520;13.456;2023-04-24T01:37:35;11.70;99.90
22948;DHT22;11640;52.520;13.456;2023-04-24T01:42:41;11.80;99.90
22948;DHT22;11640;52.520;13.456;2023-04-24T01:47:43;11.80;99.90
22948;DHT22;11640;52.520;13.456;2023-04-24T01:52:46;11.70;99.90
22948;DHT22;11640;52.520;13.456;2023-04-24T01:57:49;11.80;99.90
22948;DHT22;11640;52.520;13.456;2023-04-24T02:02:51;11.80;99.90
22948;DHT22;11640;52.520;13.456;2023-04-24T02:07:53;11.80;99.90
22948;DHT22;11640;52.520;13.456;2023-04-24T02:12:55;11.80;99.90
22948;DHT22;11640;52.520;13.456;2023-04-24T02:17:58;11.80;99.90
22948;DHT22;11640;52.520;13.456;2023-04-24T02:23:00;11.80;99.90
22948;DHT22;11640;52.520;13.456;2023-04-24T02:28:03;11.70;99.90
22948;DHT22;11640;52.520;13.456;2023-04-24T02:33:04;11.80;99.90
22948;DHT22;11640;52.520;13.456;2023-04-24T02:38:07;11.70;99.90
22948;DHT22;11640;52.520;13.456;2023-04-24T02:43:10;11.80;99.90
22948;DHT22;11640;52.520;13.456;2023-04-24T02:48:12;11.70;99.90
22948;DHT22;11640;52.520;13.456;2023-04-24T02:53:13;11.80;99.90
22948;DHT22;11640;52.520;13.456;2023-04-24T02:58:16;11.80;99.90
22948;DHT22;11640;52.520;13.456;2023-04-24T03:03:18;11.80;99.90
22948;DHT22;11640;52.520;13.456;2023-04-24T03:08:20;11.80;99.90
22948;DHT22;11640;52.520;13.456;2023-04-24T03:13:22;11.90;99.90
22948;DHT22;11640;52.520;13.456;2023-04-24T03:18:24;11.90;99.90
22948;DHT22;11640;52.520;13.456;2023-04-24T03:23:27;11.90;99.90
22948;DHT22;11640;52.520;13.456;2023-04-24T03:28:29;12.00;99.90
22948;DHT22;11640;52.520;13.456;2023-04-24T03:33:34;12.00;99.90
22948;DHT22;11640;52.520;13.456;2023-04-24T03:38:36;12.10;99.90
22948;DHT22;11640;52.520;13.456;2023-04-24T03:43:54;12.20;99.90
22948;DHT22;11640;52.520;13.456;2023-04-24T03:48:56;12.20;99.90
22948;DHT22;11640;52.520;13.456;2023-04-24T03:54:02;12.30;99.90
22948;DHT22;11640;52.520;13.456;2023-04-24T03:59:07;12.30;99.90
22948;DHT22;11640;52.520;13.456;2023-04-24T04:04:10;12.40;99.90
22948;DHT22;11640;52.520;13.456;2023-04-24T04:09:13;12.50;99.90
22948;DHT22;11640;52.520;13.456;2023-04-24T04:14:15;12.50;99.90
22948;DHT22;11640;52.520;13.456;2023-04-24T04:19:21;12.50;99.90
22948;DHT22;11640;52.520;13.456;2023-04-24T04:24:23;12.60;99.90
22948;DHT22;11640;52.520;13.456;2023-04-24T04:29:26;12.60;99.90
22948;DHT22;11640;52.520;13.456;2023-04-24T04:34:28;12.70;99.90
22948;DHT22;11640;52.520;13.456;2023-04-24T04:39:31;12.70;99.90
22948;DHT22;11640;52.520;13.456;2023-04-24T04:44:37;12.70;99.90
22948;DHT22;11640;52.520;13.456;2023-04-24T04:49:46;12.60;99.90
22948;DHT22;11640;52.520;13.456;2023-04-24T04:54:53;12.70;99.90
22948;DHT22;11640;52.520;13.456;2023-04-24T04:59:58;12.80;99.90
22948;DHT22;11640;52.520;13.456;2023-04-24T05:05:13;12.80;99.90
22948;DHT22;11640;52.520;13.456;2023-04-24T05:10:16;12.80;99.90
22948;DHT22;11640;52.520;13.456;2023-04-24T05:15:18;12.80;99.90
22948;DHT22;11640;52.520;13.456;2023-04-24T05:20:20;12.80;99.90
22948;DHT22;11640;52.520;13.456;2023-04-24T05:25:23;12.80;99.90
22948;DHT22;11640;52.520;13.456;2023-04-24T05:30:30;12.80;99.90
22948;DHT22;11640;52.520;13.456;2023-04-24T05:35:32;12.80;99.90
22948;DHT22;11640;52.520;13.456;2023-04-24T05:40:35;12.80;99.90
22948;DHT22;11640;52.520;13.456;2023-04-24T05:45:37;12.90;99.90
22948;DHT22;11640;52.520;13.456;2023-04-24T05:50:39;12.90;99.90
22948;DHT22;11640;52.520;13.456;2023-04-24T05:55:41;12.90;99.90
22948;DHT22;11640;52.520;13.456;2023-04-24T06:00:43;12.90;99.90
22948;DHT22;11640;52.520;13.456;2023-04-24T06:05:50;13.00;99.90
22948;DHT22;11640;52.520;13.456;2023-04-24T06:10:52;13.00;99.90
22948;DHT22;11640;52.520;13.456;2023-04-24T06:15:56;13.20;99.90
22948;DHT22;11640;52.520;13.456;2023-04-24T06:21:06;13.20;99.90
22948;DHT22;11640;52.520;13.456;2023-04-24T06:26:08;13.30;99.90
22948;DHT22;11640;52.520;13.456;2023-04-24T06:31:10;13.40;99.90
22948;DHT22;11640;52.520;13.456;2023-04-24T06:36:13;13.60;99.90
22948;DHT22;11640;52.520;13.456;2023-04-24T06:41:14;13.60;99.90
22948;DHT22;11640;52.520;13.456;2023-04-24T06:46:16;13.70;99.90
22948;DHT22;11640;52.520;13.456;2023-04-24T06:51:18;13.80;99.90
22948;DHT22;11640;52.520;13.456;2023-04-24T06:56:20;14.10;99.90
22948;DHT22;11640;52.520;13.456;2023-04-24T07:01:22;14.40;99.90
22948;DHT22;11640;52.520;13.456;2023-04-24T07:06:24;14.60;99.90
22948;DHT22;11640;52.520;13.456;2023-04-24T07:11:26;14.90;99.90
22948;DHT22;11640;52.520;13.456;2023-04-24T07:16:30;15.20;99.90
22948;DHT22;11640;52.520;13.456;2023-04-24T07:21:32;15.30;99.90
22948;DHT22;11640;52.520;13.456;2023-04-24T07:26:34;15.40;99.90
22948;DHT22;11640;52.520;13.456;2023-04-24T07:31:37;15.70;99.90
22948;DHT22;11640;52.520;13.456;2023-04-24T07:36:38;15.90;99.90
22948;DHT22;11640;52.520;13.456;2023-04-24T07:41:40;16.10;99.90
22948;DHT22;11640;52.520;13.456;2023-04-24T07:46:42;15.80;99.90
22948;DHT22;11640;52.520;13.456;2023-04-24T07:51:45;15.70;99.90
22948;DHT22;11640;52.520;13.456;2023-04-24T07:56:46;15.80;99.90
22948;DHT22;11640;52.520;13.456;2023-04-24T08:01:48;15.90;99.90
22948;DHT22;11640;52.520;13.456;2023-04-24T08:06:50;16.00;99.90
22948;DHT22;11640;52.520;13.456;2023-04-24T08:11:52;16.20;99.90
22948;DHT22;11640;52.520;13.456;2023-04-24T08:16:55;16.60;99.90
22948;DHT22;11640;52.520;13.456;2023-04-24T08:22:01;16.80;99.90
22948;DHT22;11640;52.520;13.456;2023-04-24T08:27:05;16.80;99.90
22948;DHT22;11640;52.520;13.456;2023-04-24T08:32:07;16.80;99.90
22948;DHT22;11640;52.520;13.456;2023-04-24T08:37:09;16.80;99.90
22948;DHT22;11640;52.520;13.456;2023-04-24T08:42:11;17.10;99.90
22948;DHT22;11640;52.520;13.456;2023-04-24T08:47:15;17.30;99.90
22948;DHT22;11640;52.520;13.456;2023-04-24T08:52:18;17.50;99.90
22948;DHT22;11640;52.520;13.456;2023-04-24T08:57:21;17.50;99.90
22948;DHT22;11640;52.520;13.456;2023-04-24T09:02:23;17.70;99.90
22948;DHT22;11640;52.520;13.456;2023-04-24T09:07:27;18.00;99.90
22948;DHT22;11640;52.520;13.456;2023-04-24T09:12:30;18.10;99.90
22948;DHT22;11640;52.520;13.456;2023-04-24T09:17:33;18.20;99.90
22948;DHT22;11640;52.520;13.456;2023-04-24T09:22:36;18.60;99.90
22948;DHT22;11640;52.520;13.456;2023-04-24T09:27:42;18.50;99.90
22948;DHT22;11640;52.520;13.456;2023-04-24T09:32:45;18.40;99.90
22948;DHT22;11640;52.520;13.456;2023-04-24T09:37:47;18.20;99.90
22948;DHT22;11640;52.520;13.456;2023-04-24T09:42:56;18.40;99.90
22948;DHT22;11640;52.520;13.456;2023-04-24T09:47:59;18.10;99.90
22948;DHT22;11640;52.520;13.456;2023-04-24T09:53:03;18.40;99.90
22948;DHT22;11640;52.520;13.456;2023-04-24T09:58:08;18.30;99.90
22948;DHT22;11640;52.520;13.456;2023-04-24T10:03:10;18.10;99.90
22948;DHT22;11640;52.520;13.456;2023-04-24T10:08:13;18.60;99.90
22948;DHT22;11640;52.520;13.456;2023-04-24T10:13:15;18.50;99.90
22948;DHT22;11640;52.520;13.456;2023-04-24T10:18:17;18.60;99.90
22948;DHT22;11640;52.520;13.456;2023-04-24T10:23:21;18.40;99.90
22948;DHT22;11640;52.520;13.456;2023-04-24T10:28:24;18.30;99.90
22948;DHT22;11640;52.520;13.456;2023-04-24T10:33:29;18.70;99.90
22948;DHT22;11640;52.520;13.456;2023-04-24T10:38:32;18.80;99.90
22948;DHT22;11640;52.520;13.456;2023-04-24T10:43:34;18.90;99.90
22948;DHT22;11640;52.520;13.456;2023-04-24T10:48:42;18.80;99.90
22948;DHT22;11640;52.520;13.456;2023-04-24T10:53:45;18.60;99.90
22948;DHT22;11640;52.520;13.456;2023-04-24T10:58:51;18.20;99.90
22948;DHT22;11640;52.520;13.456;2023-04-24T11:04:00;18.10;99.90
22948;DHT22;11640;52.520;13.456;2023-04-24T11:09:04;18.30;99.90
22948;DHT22;11640;52.520;13.456;2023-04-24T11:14:08;18.20;99.90
22948;DHT22;11640;52.520;13.456;2023-04-24T11:34:41;18.90;99.90
22948;DHT22;11640;52.520;13.456;2023-04-24T11:39:43;18.70;99.90
22948;DHT22;11640;52.520;13.456;2023-04-24T11:44:46;18.60;99.90
22948;DHT22;11640;52.520;13.456;2023-04-24T11:49:50;17.40;99.90
22948;DHT22;11640;52.520;13.456;2023-04-24T11:54:53;16.90;99.90
22948;DHT22;11640;52.520;13.456;2023-04-24T11:59:55;16.80;99.90
22948;DHT22;11640;52.520;13.456;2023-04-24T12:04:57;17.30;99.90
22948;DHT22;11640;52.520;13.456;2023-04-24T12:09:59;17.60;99.90
22948;DHT22;11640;52.520;13.456;2023-04-24T12:15:07;17.60;99.90
22948;DHT22;11640;52.520;13.456;2023-04-24T12:20:10;17.70;99.90
22948;DHT22;11640;52.520;13.456;2023-04-24T12:25:17;17.90;99.90
22948;DHT22;11640;52.520;13.456;2023-04-24T12:30:20;18.20;99.90
22948;DHT22;11640;52.520;13.456;2023-04-24T12:35:24;18.80;99.90
22948;DHT22;11640;52.520;13.456;2023-04-24T12:40:27;19.30;99.90
22948;DHT22;11640;52.520;13.456;2023-04-24T12:45:30;19.50;99.90
22948;DHT22;11640;52.520;13.456;2023-04-24T12:50:32;19.30;99.90
22948;DHT22;11640;52.520;13.456;2023-04-24T12:55:34;19.50;99.90
22948;DHT22;11640;52.520;13.456;2023-04-24T13:00:35;19.50;99.90
22948;DHT22;11640;52.520;13.456;2023-04-24T13:05:38;19.50;99.90
22948;DHT22;11640;52.520;13.456;2023-04-24T13:10:40;19.50;99.90
22948;DHT22;11640;52.520;13.456;2023-04-24T13:15:42;19.90;99.10
22948;DHT22;11640;52.520;13.456;2023-04-24T13:20:44;19.80;97.90
22948;DHT22;11640;52.520;13.456;2023-04-24T13:25:48;20.10;93.40
22948;DHT22;11640;52.520;13.456;2023-04-24T13:30:51;20.60;90.20
22948;DHT22;11640;52.520;13.456;2023-04-24T13:35:53;21.20;87.90
22948;DHT22;11640;52.520;13.456;2023-04-24T13:40:55;21.80;82.30
22948;DHT22;11640;52.520;13.456;2023-04-24T13:45:56;21.50;80.10
22948;DHT22;11640;52.520;13.456;2023-04-24T13:50:58;21.10;74.50
22948;DHT22;11640;52.520;13.456;2023-04-24T13:56:00;22.10;71.00
22948;DHT22;11640;52.520;13.456;2023-04-24T14:01:02;22.60;68.60
22948;DHT22;11640;52.520;13.456;2023-04-24T14:06:05;23.10;68.50
22948;DHT22;11640;52.520;13.456;2023-04-24T14:11:08;23.20;64.60
22948;DHT22;11640;52.520;13.456;2023-04-24T14:16:10;23.30;60.40
22948;DHT22;11640;52.520;13.456;2023-04-24T14:21:12;23.20;62.00
22948;DHT22;11640;52.520;13.456;2023-04-24T14:26:14;23.30;61.00
22948;DHT22;11640;52.520;13.456;2023-04-24T14:31:16;22.20;60.60
22948;DHT22;11640;52.520;13.456;2023-04-24T14:36:18;21.80;65.40
22948;DHT22;11640;52.520;13.456;2023-04-24T14:41:20;22.10;61.90
22948;DHT22;11640;52.520;13.456;2023-04-24T14:46:21;22.20;58.80
22948;DHT22;11640;52.520;13.456;2023-04-24T14:51:23;21.60;58.20
22948;DHT22;11640;52.520;13.456;2023-04-24T14:56:25;20.20;63.30
22948;DHT22;11640;52.520;13.456;2023-04-24T15:01:27;19.80;70.10
22948;DHT22;11640;52.520;13.456;2023-04-24T15:06:30;19.50;70.90
22948;DHT22;11640;52.520;13.456;2023-04-24T15:11:33;19.30;72.60
22948;DHT22;11640;52.520;13.456;2023-04-24T15:16:34;19.20;74.20
22948;DHT22;11640;52.520;13.456;2023-04-24T15:21:37;19.10;75.60
22948;DHT22;11640;52.520;13.456;2023-04-24T15:26:39;18.70;79.00
22948;DHT22;11640;52.520;13.456;2023-04-24T15:31:41;18.40;82.20
22948;DHT22;11640;52.520;13.456;2023-04-24T15:36:43;18.50;82.80
22948;DHT22;11640;52.520;13.456;2023-04-24T15:41:44;18.40;79.70
22948;DHT22;11640;52.520;13.456;2023-04-24T15:46:46;18.00;79.80
22948;DHT22;11640;52.520;13.456;2023-04-24T15:51:48;17.70;82.60
22948;DHT22;11640;52.520;13.456;2023-04-24T15:56:50;17.40;83.70
22948;DHT22;11640;52.520;13.456;2023-04-24T16:01:52;17.30;84.50
22948;DHT22;11640;52.520;13.456;2023-04-24T16:06:55;17.10;86.10
22948;DHT22;11640;52.520;13.456;2023-04-24T16:11:58;17.10;88.40
22948;DHT22;11640;52.520;13.456;2023-04-24T16:16:59;16.90;87.70
22948;DHT22;11640;52.520;13.456;2023-04-24T16:22:03;16.60;89.30
22948;DHT22;11640;52.520;13.456;2023-04-24T16:27:05;16.60;90.60
22948;DHT22;11640;52.520;13.456;2023-04-24T16:32:08;16.50;91.20
22948;DHT22;11640;52.520;13.456;2023-04-24T16:37:10;16.50;91.60
22948;DHT22;11640;52.520;13.456;2023-04-24T16:42:13;16.50;92.00
22948;DHT22;11640;52.520;13.456;2023-04-24T16:47:15;16.40;91.90
22948;DHT22;11640;52.520;13.456;2023-04-24T16:52:17;16.20;92.10
22948;DHT22;11640;52.520;13.456;2023-04-24T16:57:19;16.00;93.40
22948;DHT22;11640;52.520;13.456;2023-04-24T17:02:21;15.70;96.30
22948;DHT22;11640;52.520;13.456;2023-04-24T17:07:23;15.30;98.50
22948;DHT22;11640;52.520;13.456;2023-04-24T17:12:25;14.80;99.90
22948;DHT22;11640;52.520;13.456;2023-04-24T17:17:27;14.50;99.90
22948;DHT22;11640;52.520;13.456;2023-04-24T17:22:28;14.40;99.90
22948;DHT22;11640;52.520;13.456;2023-04-24T17:27:30;14.20;99.90
22948;DHT22;11640;52.520;13.456;2023-04-24T17:32:32;13.90;99.90
22948;DHT22;11640;52.520;13.456;2023-04-24T17:37:34;13.70;99.90
22948;DHT22;11640;52.520;13.456;2023-04-24T17:42:36;13.50;99.90
22948;DHT22;11640;52.520;13.456;2023-04-24T17:47:41;13.30;99.90
22948;DHT22;11640;52.520;13.456;2023-04-24T17:52:43;13.20;99.90
22948;DHT22;11640;52.520;13.456;2023-04-24T17:57:45;13.10;99.90
22948;DHT22;11640;52.520;13.456;2023-04-24T18:02:47;12.90;99.90
22948;DHT22;11640;52.520;13.456;2023-04-24T18:07:51;12.80;99.90
22948;DHT22;11640;52.520;13.456;2023-04-24T18:12:53;12.90;99.90
22948;DHT22;11640;52.520;13.456;2023-04-24T18:17:55;12.70;99.90
22948;DHT22;11640;52.520;13.456;2023-04-24T18:22:57;12.50;99.90
22948;DHT22;11640;52.520;13.456;2023-04-24T18:27:58;12.30;99.90
22948;DHT22;11640;52.520;13.456;2023-04-24T18:33:00;12.30;99.90
22948;DHT22;11640;52.520;13.456;2023-04-24T18:38:02;12.20;99.90
22948;DHT22;11640;52.520;13.456;2023-04-24T18:43:05;12.10;99.90
22948;DHT22;11640;52.520;13.456;2023-04-24T18:48:06;12.00;99.90
22948;DHT22;11640;52.520;13.456;2023-04-24T18:53:08;11.90;99.90
22948;DHT22;11640;52.520;13.456;2023-04-24T18:58:13;11.70;99.90
22948;DHT22;11640;52.520;13.456;2023-04-24T19:03:15;11.70;99.90
22948;DHT22;11640;52.520;13.456;2023-04-24T19:08:17;11.40;99.90
22948;DHT22;11640;52.520;13.456;2023-04-24T19:13:19;11.10;99.90
22948;DHT22;11640;52.520;13.456;2023-04-24T19:18:21;10.90;99.90
22948;DHT22;11640;52.520;13.456;2023-04-24T19:23:23;10.80;99.90
22948;DHT22;11640;52.520;13.456;2023-04-24T19:28:24;10.80;99.90
22948;DHT22;11640;52.520;13.456;2023-04-24T19:33:27;10.70;99.90
22948;DHT22;11640;52.520;13.456;2023-04-24T19:38:29;10.60;99.90
22948;DHT22;11640;52.520;13.456;2023-04-24T19:43:30;10.70;99.90
22948;DHT22;11640;52.520;13.456;2023-04-24T19:48:32;10.70;99.90
22948;DHT22;11640;52.520;13.456;2023-04-24T19:53:34;10.70;99.90
22948;DHT22;11640;52.520;13.456;2023-04-24T19:58:36;10.70;99.90
22948;DHT22;11640;52.520;13.456;2023-04-24T20:03:38;10.60;99.90
22948;DHT22;11640;52.520;13.456;2023-04-24T20:08:40;10.60;99.90
22948;DHT22;11640;52.520;13.456;2023-04-24T20:13:43;10.50;99.90
22948;DHT22;11640;52.520;13.456;2023-04-24T20:18:45;10.40;99.90
22948;DHT22;11640;52.520;13.456;2023-04-24T20:23:47;10.20;99.90
22948;DHT22;11640;52.520;13.456;2023-04-24T20:28:48;10.00;99.90
22948;DHT22;11640;52.520;13.456;2023-04-24T20:33:51;10.00;99.90
22948;DHT22;11640;52.520;13.456;2023-04-24T20:38:53;10.00;99.90
22948;DHT22;11640;52.520;13.456;2023-04-24T20:43:55;10.00;99.90
22948;DHT22;11640;52.520;13.456;2023-04-24T20:48:58;10.00;99.90
22948;DHT22;11640;52.520;13.456;2023-04-24T20:54:00;9.90;99.90
22948;DHT22;11640;52.520;13.456;2023-04-24T20:59:02;9.90;99.90
22948;DHT22;11640;52.520;13.456;2023-04-24T21:04:03;9.70;99.90
22948;DHT22;11640;52.520;13.456;2023-04-24T21:09:05;9.70;99.90
22948;DHT22;11640;52.520;13.456;2023-04-24T21:14:07;9.70;99.90
22948;DHT22;11640;52.520;13.456;2023-04-24T21:19:09;9.60;99.90
22948;DHT22;11640;52.520;13.456;2023-04-24T21:24:11;9.50;99.90
22948;DHT22;11640;52.520;13.456;2023-04-24T21:29:12;9.50;99.90
22948;DHT22;11640;52.520;13.456;2023-04-24T21:34:14;9.50;99.90
22948;DHT22;11640;52.520;13.456;2023-04-24T21:39:16;9.40;99.90
22948;DHT22;11640;52.520;13.456;2023-04-24T21:44:18;9.40;99.90
22948;DHT22;11640;52.520;13.456;2023-04-24T21:49:20;9.50;99.90
22948;DHT22;11640;52.520;13.456;2023-04-24T21:54:22;9.50;99.90
22948;DHT22;11640;52.520;13.456;2023-04-24T21:59:24;9.50;99.90
22948;DHT22;11640;52.520;13.456;2023-04-24T22:04:26;9.50;99.90
22948;DHT22;11640;52.520;13.456;2023-04-24T22:09:28;9.40;99.90
22948;DHT22;11640;52.520;13.456;2023-04-24T22:14:30;9.40;99.90
22948;DHT22;11640;52.520;13.456;2023-04-24T22:19:31;9.40;99.90
22948;DHT22;11640;52.520;13.456;2023-04-24T22:24:33;9.30;99.90
22948;DHT22;11640;52.520;13.456;2023-04-24T22:29:35;9.30;99.90
22948;DHT22;11640;52.520;13.456;2023-04-24T22:34:37;9.20;99.90
22948;DHT22;11640;52.520;13.456;2023-04-24T22:39:39;9.20;99.90
22948;DHT22;11640;52.520;13.456;2023-04-24T22:44:41;9.20;99.90
22948;DHT22;11640;52.520;13.456;2023-04-24T22:49:42;9.20;99.90
22948;DHT22;11640;52.520;13.456;2023-04-24T22:54:44;9.10;99.90
22948;DHT22;11640;52.520;13.456;2023-04-24T22:59:46;9.10;99.90
22948;DHT22;11640;52.520;13.456;2023-04-24T23:04:48;9.00;99.90
22948;DHT22;11640;52.520;13.456;2023-04-24T23:09:50;9.10;99.90
22948;DHT22;11640;52.520;13.456;2023-04-24T23:14:51;9.10;99.90
22948;DHT22;11640;52.520;13.456;2023-04-24T23:19:53;9.20;99.90
22948;DHT22;11640;52.520;13.456;2023-04-24T23:24:55;9.10;99.90
22948;DHT22;11640;52.520;13.456;2023-04-24T23:29:57;9.10;99.90
22948;DHT22;11640;52.520;13.456;2023-04-24T23:34:58;9.10;99.90
22948;DHT22;11640;52.520;13.456;2023-04-24T23:40:00;9.20;99.90
22948;DHT22;11640;52.520;13.456;2023-04-24T23:45:03;9.20;99.90
22948;DHT22;11640;52.520;13.456;2023-04-24T23:50:05;9.20;99.90
22948;DHT22;11640;52.520;13.456;2023-04-24T23:55:07;9.20;99.90
